^^
Station Historical Data
Daily Summary for January 26, 2018 Units:  Both    English   Metric
« Previous Day
Next Day »
Daily Weekly Monthly Yearly Custom
  High: Low: Average:
Temperature: TemperatureF °F /  -17.8 °C 64.2 °F /  17.9 °C 77.5 °F /  25.3 °C
Dew Point: DewpointF °F /  -17.8 °C 36.3 °F /  2.4 °C 42.3 °F /  5.7 °C
Humidity: Humidity% 17% 30%
Wind Speed: WindSpeedMPHmph /  0km/h - 1.3mph /  2.1km/h
Wind Gust: WindSpeedGustMPHmph /  0km/h - -
Wind- - SSW
Pressure: PressureIn in /  0 hPa 29.56 in /  1000.9 hPa -
Precipitation: 0.00 in /  0 mm    
Historical Graphs
 
 
Tabular Data for January 26, 2018
Time Temperature Dew Point Pressure Wind Wind Speed Wind Gust Humidity Rainfall Rate (Hourly) solar Conditions
TemperatureF °F /  -17.8 °C DewpointF °F /  -17.8 °C PressureInin /  0hPa Calm     Humidity% HourlyPrecipInin /  0mm SolarRadiationWatts/m^2 W/m2 Conditions
00:00 72.5 °F /  22.5 °C 40.1 °F /  4.5 °C 29.71in /  1006hPa Calm   2.0mph /  3.2km/h 31% 0.00in /  0mm 0.0 W/m2
00:05 72.3 °F /  22.4 °C 40.8 °F /  4.9 °C 29.71in /  1006hPa Calm   2.0mph /  3.2km/h 32% 0.00in /  0mm 0.0 W/m2
00:10 72.1 °F /  22.3 °C 40.6 °F /  4.8 °C 29.71in /  1006hPa East 0.9mph /  1.4km/h 4.0mph /  6.4km/h 32% 0.00in /  0mm 0.0 W/m2
00:15 72.0 °F /  22.2 °C 40.5 °F /  4.7 °C 29.71in /  1006hPa Calm   3.0mph /  4.8km/h 32% 0.00in /  0mm 0.0 W/m2
00:21 71.8 °F /  22.1 °C 40.3 °F /  4.6 °C 29.71in /  1006hPa North 0.9mph /  1.4km/h 2.0mph /  3.2km/h 32% 0.00in /  0mm 0.0 W/m2
00:26 71.6 °F /  22 °C 41.0 °F /  5 °C 29.71in /  1006hPa NW 2.0mph /  3.2km/h 2.0mph /  3.2km/h 33% 0.00in /  0mm 0.0 W/m2
00:31 71.4 °F /  21.9 °C 40.8 °F /  4.9 °C 29.71in /  1006hPa Calm   2.0mph /  3.2km/h 33% 0.00in /  0mm 0.0 W/m2
00:36 71.4 °F /  21.9 °C 41.5 °F /  5.3 °C 29.71in /  1006hPa NW 2.0mph /  3.2km/h 2.0mph /  3.2km/h 34% 0.00in /  0mm 0.0 W/m2
00:41 71.4 °F /  21.9 °C 41.5 °F /  5.3 °C 29.71in /  1006hPa Calm   3.0mph /  4.8km/h 34% 0.00in /  0mm 0.0 W/m2
00:46 71.2 °F /  21.8 °C 42.3 °F /  5.7 °C 29.71in /  1006hPa Calm   2.0mph /  3.2km/h 35% 0.00in /  0mm 0.0 W/m2
00:51 71.2 °F /  21.8 °C 42.3 °F /  5.7 °C 29.71in /  1006hPa Calm   3.0mph /  4.8km/h 35% 0.00in /  0mm 0.0 W/m2
00:56 71.1 °F /  21.7 °C 42.1 °F /  5.6 °C 29.71in /  1006hPa WNW 0.9mph /  1.4km/h 1.0mph /  1.6km/h 35% 0.00in /  0mm 0.0 W/m2
01:02 71.1 °F /  21.7 °C 42.1 °F /  5.6 °C 29.71in /  1006hPa Calm     35% 0.00in /  0mm 0.0 W/m2
01:07 70.9 °F /  21.6 °C 41.9 °F /  5.5 °C 29.71in /  1006hPa Calm     35% 0.00in /  0mm 0.0 W/m2
01:12 70.5 °F /  21.4 °C 41.5 °F /  5.3 °C 29.72in /  1006.3hPa Calm   1.0mph /  1.6km/h 35% 0.00in /  0mm 0.0 W/m2
01:17 70.3 °F /  21.3 °C 42.1 °F /  5.6 °C 29.71in /  1006hPa Calm   1.0mph /  1.6km/h 36% 0.00in /  0mm 0.0 W/m2
01:22 70.2 °F /  21.2 °C 41.9 °F /  5.5 °C 29.71in /  1006hPa Calm     36% 0.00in /  0mm 0.0 W/m2
01:27 70.2 °F /  21.2 °C 42.6 °F /  5.9 °C 29.70in /  1005.6hPa Calm     37% 0.00in /  0mm 0.0 W/m2
01:32 70.0 °F /  21.1 °C 42.4 °F /  5.8 °C 29.70in /  1005.6hPa Calm     37% 0.00in /  0mm 0.0 W/m2
01:37 69.6 °F /  20.9 °C 42.3 °F /  5.7 °C 29.70in /  1005.6hPa Calm   1.0mph /  1.6km/h 37% 0.00in /  0mm 0.0 W/m2
01:42 69.4 °F /  20.8 °C 42.8 °F /  6 °C 29.70in /  1005.6hPa Calm     38% 0.00in /  0mm 0.0 W/m2
01:47 69.3 °F /  20.7 °C 42.6 °F /  5.9 °C 29.70in /  1005.6hPa Calm     38% 0.00in /  0mm 0.0 W/m2
01:52 69.1 °F /  20.6 °C 43.2 °F /  6.2 °C 29.70in /  1005.6hPa Calm   1.0mph /  1.6km/h 39% 0.00in /  0mm 0.0 W/m2
01:57 68.7 °F /  20.4 °C 42.8 °F /  6 °C 29.69in /  1005.3hPa Calm   1.0mph /  1.6km/h 39% 0.00in /  0mm 0.0 W/m2
02:02 68.5 °F /  20.3 °C 42.6 °F /  5.9 °C 29.70in /  1005.6hPa Calm     39% 0.00in /  0mm 0.0 W/m2
02:07 68.4 °F /  20.2 °C 43.2 °F /  6.2 °C 29.70in /  1005.6hPa Calm     40% 0.00in /  0mm 0.0 W/m2
02:13 68.2 °F /  20.1 °C 43.0 °F /  6.1 °C 29.69in /  1005.3hPa Calm   1.0mph /  1.6km/h 40% 0.00in /  0mm 0.0 W/m2
02:18 67.8 °F /  19.9 °C 42.6 °F /  5.9 °C 29.69in /  1005.3hPa Calm     40% 0.00in /  0mm 0.0 W/m2
02:23 67.5 °F /  19.7 °C 42.3 °F /  5.7 °C 29.68in /  1005hPa Calm     40% 0.00in /  0mm 0.0 W/m2
02:28 67.1 °F /  19.5 °C 41.9 °F /  5.5 °C 29.68in /  1005hPa Calm   1.0mph /  1.6km/h 40% 0.00in /  0mm 0.0 W/m2
02:33 66.9 °F /  19.4 °C 42.4 °F /  5.8 °C 29.68in /  1005hPa Calm     41% 0.00in /  0mm 0.0 W/m2
02:38 66.6 °F /  19.2 °C 42.1 °F /  5.6 °C 29.68in /  1005hPa SSE 0.9mph /  1.4km/h 3.0mph /  4.8km/h 41% 0.00in /  0mm 0.0 W/m2
02:43 66.6 °F /  19.2 °C 42.1 °F /  5.6 °C 29.68in /  1005hPa Calm   2.0mph /  3.2km/h 41% 0.00in /  0mm 0.0 W/m2
02:48 66.6 °F /  19.2 °C 42.1 °F /  5.6 °C 29.68in /  1005hPa Calm     41% 0.00in /  0mm 0.0 W/m2
02:54 66.6 °F /  19.2 °C 42.1 °F /  5.6 °C 29.67in /  1004.6hPa Calm   1.0mph /  1.6km/h 41% 0.00in /  0mm 0.0 W/m2
02:59 66.4 °F /  19.1 °C 42.6 °F /  5.9 °C 29.67in /  1004.6hPa Calm   2.0mph /  3.2km/h 42% 0.00in /  0mm 0.0 W/m2
03:05 66.2 °F /  19 °C 42.4 °F /  5.8 °C 29.67in /  1004.6hPa Calm   1.0mph /  1.6km/h 42% 0.00in /  0mm 0.0 W/m2
03:10 66.0 °F /  18.9 °C 42.3 °F /  5.7 °C 29.67in /  1004.6hPa Calm   1.0mph /  1.6km/h 42% 0.00in /  0mm 0.0 W/m2
03:15 66.0 °F /  18.9 °C 42.8 °F /  6 °C 29.67in /  1004.6hPa Calm     43% 0.00in /  0mm 0.0 W/m2
03:20 65.8 °F /  18.8 °C 42.8 °F /  6 °C 29.66in /  1004.3hPa Calm     43% 0.00in /  0mm 0.0 W/m2
03:25 65.8 °F /  18.8 °C 42.8 °F /  6 °C 29.66in /  1004.3hPa Calm     43% 0.00in /  0mm 0.0 W/m2
03:30 65.7 °F /  18.7 °C 42.6 °F /  5.9 °C 29.66in /  1004.3hPa Calm     43% 0.00in /  0mm 0.0 W/m2
03:36 65.7 °F /  18.7 °C 42.6 °F /  5.9 °C 29.66in /  1004.3hPa SE 2.0mph /  3.2km/h 2.0mph /  3.2km/h 43% 0.00in /  0mm 0.0 W/m2
03:41 65.7 °F /  18.7 °C 42.6 °F /  5.9 °C 29.65in /  1003.9hPa Calm   2.0mph /  3.2km/h 43% 0.00in /  0mm 0.0 W/m2
03:47 65.7 °F /  18.7 °C 42.6 °F /  5.9 °C 29.65in /  1003.9hPa SSE 2.0mph /  3.2km/h 2.0mph /  3.2km/h 43% 0.00in /  0mm 0.0 W/m2
03:52 65.8 °F /  18.8 °C 42.8 °F /  6 °C 29.65in /  1003.9hPa Calm     43% 0.00in /  0mm 0.0 W/m2
03:57 65.8 °F /  18.8 °C 42.8 °F /  6 °C 29.65in /  1003.9hPa Calm     43% 0.00in /  0mm 0.0 W/m2
04:02 65.8 °F /  18.8 °C 42.8 °F /  6 °C 29.66in /  1004.3hPa Calm     43% 0.00in /  0mm 0.0 W/m2
04:07 65.8 °F /  18.8 °C 42.8 °F /  6 °C 29.65in /  1003.9hPa Calm     43% 0.00in /  0mm 0.0 W/m2
04:12 65.8 °F /  18.8 °C 42.8 °F /  6 °C 29.65in /  1003.9hPa Calm   4.0mph /  6.4km/h 43% 0.00in /  0mm 0.0 W/m2
04:17 65.7 °F /  18.7 °C 42.6 °F /  5.9 °C 29.65in /  1003.9hPa Calm     43% 0.00in /  0mm 0.0 W/m2
04:23 65.7 °F /  18.7 °C 43.2 °F /  6.2 °C 29.65in /  1003.9hPa SE 0.9mph /  1.4km/h 1.0mph /  1.6km/h 44% 0.00in /  0mm 0.0 W/m2
04:28 65.7 °F /  18.7 °C 43.2 °F /  6.2 °C 29.65in /  1003.9hPa Calm   3.0mph /  4.8km/h 44% 0.00in /  0mm 0.0 W/m2
04:33 65.5 °F /  18.6 °C 43.5 °F /  6.4 °C 29.64in /  1003.6hPa Calm   1.0mph /  1.6km/h 45% 0.00in /  0mm 0.0 W/m2
04:38 65.5 °F /  18.6 °C 43.5 °F /  6.4 °C 29.65in /  1003.9hPa Calm     45% 0.00in /  0mm 0.0 W/m2
04:43 65.5 °F /  18.6 °C 43.5 °F /  6.4 °C 29.65in /  1003.9hPa Calm   1.0mph /  1.6km/h 45% 0.00in /  0mm 0.0 W/m2
04:48 65.3 °F /  18.5 °C 43.3 °F /  6.3 °C 29.65in /  1003.9hPa Calm     45% 0.00in /  0mm 0.0 W/m2
04:53 65.1 °F /  18.4 °C 43.9 °F /  6.6 °C 29.65in /  1003.9hPa Calm     46% 0.00in /  0mm 0.0 W/m2
04:58 65.1 °F /  18.4 °C 43.9 °F /  6.6 °C 29.65in /  1003.9hPa Calm     46% 0.00in /  0mm 0.0 W/m2
05:03 64.9 °F /  18.3 °C 43.7 °F /  6.5 °C 29.65in /  1003.9hPa Calm     46% 0.00in /  0mm 0.0 W/m2
05:08 64.8 °F /  18.2 °C 43.5 °F /  6.4 °C 29.65in /  1003.9hPa Calm   1.0mph /  1.6km/h 46% 0.00in /  0mm 0.0 W/m2
05:13 64.8 °F /  18.2 °C 43.5 °F /  6.4 °C 29.65in /  1003.9hPa SE 0.9mph /  1.4km/h 2.0mph /  3.2km/h 46% 0.00in /  0mm 0.0 W/m2
05:19 64.8 °F /  18.2 °C 43.5 °F /  6.4 °C 29.65in /  1003.9hPa SE 0.9mph /  1.4km/h 3.0mph /  4.8km/h 46% 0.00in /  0mm 0.0 W/m2
05:24 64.8 °F /  18.2 °C 43.5 °F /  6.4 °C 29.65in /  1003.9hPa Calm   1.0mph /  1.6km/h 46% 0.00in /  0mm 0.0 W/m2
05:29 64.8 °F /  18.2 °C 43.5 °F /  6.4 °C 29.65in /  1003.9hPa Calm   2.0mph /  3.2km/h 46% 0.00in /  0mm 0.0 W/m2
05:34 64.8 °F /  18.2 °C 43.5 °F /  6.4 °C 29.65in /  1003.9hPa SE 0.9mph /  1.4km/h 3.0mph /  4.8km/h 46% 0.00in /  0mm 0.0 W/m2
05:39 64.8 °F /  18.2 °C 43.5 °F /  6.4 °C 29.65in /  1003.9hPa Calm   1.0mph /  1.6km/h 46% 0.00in /  0mm 0.0 W/m2
05:44 64.8 °F /  18.2 °C 44.1 °F /  6.7 °C 29.65in /  1003.9hPa Calm     47% 0.00in /  0mm 0.0 W/m2
05:49 64.8 °F /  18.2 °C 44.1 °F /  6.7 °C 29.65in /  1003.9hPa Calm     47% 0.00in /  0mm 0.0 W/m2
05:54 64.9 °F /  18.3 °C 44.2 °F /  6.8 °C 29.66in /  1004.3hPa SE 0.9mph /  1.4km/h 1.0mph /  1.6km/h 47% 0.00in /  0mm 0.0 W/m2
06:00 64.9 °F /  18.3 °C 44.2 °F /  6.8 °C 29.66in /  1004.3hPa Calm   2.0mph /  3.2km/h 47% 0.00in /  0mm 0.0 W/m2
06:05 64.9 °F /  18.3 °C 44.2 °F /  6.8 °C 29.66in /  1004.3hPa Calm   1.0mph /  1.6km/h 47% 0.00in /  0mm 0.0 W/m2
06:10 64.8 °F /  18.2 °C 44.1 °F /  6.7 °C 29.66in /  1004.3hPa Calm   2.0mph /  3.2km/h 47% 0.00in /  0mm 0.0 W/m2
06:15 64.6 °F /  18.1 °C 44.4 °F /  6.9 °C 29.66in /  1004.3hPa East 0.9mph /  1.4km/h 2.0mph /  3.2km/h 48% 0.00in /  0mm 0.0 W/m2
06:20 64.6 °F /  18.1 °C 44.4 °F /  6.9 °C 29.66in /  1004.3hPa Calm     48% 0.00in /  0mm 0.0 W/m2
06:25 64.4 °F /  18 °C 44.8 °F /  7.1 °C 29.66in /  1004.3hPa Calm   1.0mph /  1.6km/h 49% 0.00in /  0mm 0.0 W/m2
06:30 64.2 °F /  17.9 °C 44.6 °F /  7 °C 29.66in /  1004.3hPa Calm   1.0mph /  1.6km/h 49% 0.00in /  0mm 0.0 W/m2
06:35 64.2 °F /  17.9 °C 44.6 °F /  7 °C 29.67in /  1004.6hPa Calm   3.0mph /  4.8km/h 49% 0.00in /  0mm 7.0 W/m2
06:40 64.2 °F /  17.9 °C 45.1 °F /  7.3 °C 29.67in /  1004.6hPa Calm     50% 0.00in /  0mm 11.0 W/m2
06:46 64.2 °F /  17.9 °C 45.1 °F /  7.3 °C 29.67in /  1004.6hPa Calm     50% 0.00in /  0mm 14.0 W/m2
06:51 64.2 °F /  17.9 °C 45.7 °F /  7.6 °C 29.67in /  1004.6hPa NE 0.9mph /  1.4km/h 1.0mph /  1.6km/h 51% 0.00in /  0mm 26.0 W/m2
06:56 64.4 °F /  18 °C 45.9 °F /  7.7 °C 29.67in /  1004.6hPa Calm   1.0mph /  1.6km/h 51% 0.00in /  0mm 28.0 W/m2
07:01 64.6 °F /  18.1 °C 46.6 °F /  8.1 °C 29.67in /  1004.6hPa East 2.0mph /  3.2km/h 2.0mph /  3.2km/h 52% 0.00in /  0mm 32.0 W/m2
07:06 64.8 °F /  18.2 °C 46.2 °F /  7.9 °C 29.68in /  1005hPa ESE 0.9mph /  1.4km/h 2.0mph /  3.2km/h 51% 0.00in /  0mm 32.0 W/m2
07:11 64.9 °F /  18.3 °C 46.4 °F /  8 °C 29.68in /  1005hPa Calm   1.0mph /  1.6km/h 51% 0.00in /  0mm 40.0 W/m2
07:16 65.1 °F /  18.4 °C 46.6 °F /  8.1 °C 29.68in /  1005hPa Calm     51% 0.00in /  0mm 49.0 W/m2
07:21 65.5 °F /  18.6 °C 47.5 °F /  8.6 °C 29.68in /  1005hPa Calm   1.0mph /  1.6km/h 52% 0.00in /  0mm 54.0 W/m2
07:27 65.7 °F /  18.7 °C 47.5 °F /  8.6 °C 29.68in /  1005hPa Calm   1.0mph /  1.6km/h 52% 0.00in /  0mm 65.0 W/m2
07:32 66.0 °F /  18.9 °C 47.8 °F /  8.8 °C 29.68in /  1005hPa Calm   1.0mph /  1.6km/h 52% 0.00in /  0mm 67.0 W/m2
07:37 66.4 °F /  19.1 °C 48.7 °F /  9.3 °C 29.68in /  1005hPa Calm   1.0mph /  1.6km/h 53% 0.00in /  0mm 72.0 W/m2
07:42 66.7 °F /  19.3 °C 48.6 °F /  9.2 °C 29.68in /  1005hPa Calm   1.0mph /  1.6km/h 52% 0.00in /  0mm 81.0 W/m2
07:47 66.9 °F /  19.4 °C 48.7 °F /  9.3 °C 29.68in /  1005hPa Calm   2.0mph /  3.2km/h 52% 0.00in /  0mm 88.0 W/m2
07:52 67.5 °F /  19.7 °C 48.7 °F /  9.3 °C 29.68in /  1005hPa Calm   2.0mph /  3.2km/h 51% 0.00in /  0mm 104.0 W/m2
07:57 67.8 °F /  19.9 °C 49.1 °F /  9.5 °C 29.68in /  1005hPa Calm     51% 0.00in /  0mm 118.0 W/m2
08:02 68.2 °F /  20.1 °C 49.3 °F /  9.6 °C 29.68in /  1005hPa Calm     51% 0.00in /  0mm 135.0 W/m2
08:08 68.7 °F /  20.4 °C 49.8 °F /  9.9 °C 29.68in /  1005hPa Calm     51% 0.00in /  0mm 141.0 W/m2
08:13 69.1 °F /  20.6 °C 49.1 °F /  9.5 °C 29.68in /  1005hPa Calm     49% 0.00in /  0mm 165.0 W/m2
08:18 69.4 °F /  20.8 °C 48.9 °F /  9.4 °C 29.68in /  1005hPa Calm     48% 0.00in /  0mm 162.0 W/m2
08:23 70.0 °F /  21.1 °C 48.7 °F /  9.3 °C 29.68in /  1005hPa Calm     47% 0.00in /  0mm 271.0 W/m2
08:28 70.7 °F /  21.5 °C 47.1 °F /  8.4 °C 29.68in /  1005hPa Calm     43% 0.00in /  0mm 454.0 W/m2
08:33 72.0 °F /  22.2 °C 45.0 °F /  7.2 °C 29.67in /  1004.6hPa Calm   1.0mph /  1.6km/h 38% 0.00in /  0mm 461.0 W/m2
08:38 73.0 °F /  22.8 °C 45.1 °F /  7.3 °C 29.67in /  1004.6hPa SSW 4.9mph /  7.9km/h 7.0mph /  11.3km/h 37% 0.00in /  0mm 476.0 W/m2
08:43 74.5 °F /  23.6 °C 41.9 °F /  5.5 °C 29.67in /  1004.6hPa SSW 0.9mph /  1.4km/h 2.0mph /  3.2km/h 31% 0.00in /  0mm 496.0 W/m2
08:49 75.6 °F /  24.2 °C 42.8 °F /  6 °C 29.67in /  1004.6hPa SSE 6.9mph /  11.1km/h 7.0mph /  11.3km/h 31% 0.00in /  0mm 526.0 W/m2
08:54 76.6 °F /  24.8 °C 42.1 °F /  5.6 °C 29.67in /  1004.6hPa WSW 2.0mph /  3.2km/h 6.0mph /  9.7km/h 29% 0.00in /  0mm 545.0 W/m2
08:59 77.5 °F /  25.3 °C 41.9 °F /  5.5 °C 29.68in /  1005hPa South 2.9mph /  4.7km/h 4.0mph /  6.4km/h 28% 0.00in /  0mm 573.0 W/m2
09:04 78.4 °F /  25.8 °C 41.7 °F /  5.4 °C 29.68in /  1005hPa WSW 6.9mph /  11.1km/h 8.0mph /  12.9km/h 27% 0.00in /  0mm 596.0 W/m2
09:09 79.5 °F /  26.4 °C 42.6 °F /  5.9 °C 29.68in /  1005hPa SSW 0.9mph /  1.4km/h 6.0mph /  9.7km/h 27% 0.00in /  0mm 615.0 W/m2
09:14 80.2 °F /  26.8 °C 42.3 °F /  5.7 °C 29.68in /  1005hPa SW 4.0mph /  6.4km/h 4.0mph /  6.4km/h 26% 0.00in /  0mm 617.0 W/m2
09:19 80.4 °F /  26.9 °C 41.4 °F /  5.2 °C 29.68in /  1005hPa WSW 0.9mph /  1.4km/h 2.0mph /  3.2km/h 25% 0.00in /  0mm 640.0 W/m2
09:24 80.8 °F /  27.1 °C 42.6 °F /  5.9 °C 29.68in /  1005hPa Calm   5.0mph /  8km/h 26% 0.00in /  0mm 654.0 W/m2
09:29 81.1 °F /  27.3 °C 43.0 °F /  6.1 °C 29.68in /  1005hPa SSE 8.1mph /  13km/h 8.1mph /  13km/h 26% 0.00in /  0mm 680.0 W/m2
09:35 81.7 °F /  27.6 °C 43.5 °F /  6.4 °C 29.68in /  1005hPa South 6.0mph /  9.7km/h 8.0mph /  12.9km/h 26% 0.00in /  0mm 708.0 W/m2
09:40 82.0 °F /  27.8 °C 42.8 °F /  6 °C 29.68in /  1005hPa SE 2.0mph /  3.2km/h 4.0mph /  6.4km/h 25% 0.00in /  0mm 721.0 W/m2
09:45 82.4 °F /  28 °C 41.9 °F /  5.5 °C 29.68in /  1005hPa Calm   4.0mph /  6.4km/h 24% 0.00in /  0mm 728.0 W/m2
09:50 82.8 °F /  28.2 °C 43.3 °F /  6.3 °C 29.68in /  1005hPa Calm   5.0mph /  8km/h 25% 0.00in /  0mm 731.0 W/m2
09:55 83.1 °F /  28.4 °C 42.6 °F /  5.9 °C 29.68in /  1005hPa SW 0.9mph /  1.4km/h 2.0mph /  3.2km/h 24% 0.00in /  0mm 759.0 W/m2
10:00 83.3 °F /  28.5 °C 43.9 °F /  6.6 °C 29.68in /  1005hPa SW 0.9mph /  1.4km/h 5.0mph /  8km/h 25% 0.00in /  0mm 789.0 W/m2
10:06 83.5 °F /  28.6 °C 43.0 °F /  6.1 °C 29.68in /  1005hPa SW 2.0mph /  3.2km/h 5.0mph /  8km/h 24% 0.00in /  0mm 882.0 W/m2
10:11 83.5 °F /  28.6 °C 41.7 °F /  5.4 °C 29.68in /  1005hPa Calm   1.0mph /  1.6km/h 23% 0.00in /  0mm 893.0 W/m2
10:16 83.7 °F /  28.7 °C 43.0 °F /  6.1 °C 29.68in /  1005hPa South 4.0mph /  6.4km/h 8.0mph /  12.9km/h 24% 0.00in /  0mm 694.0 W/m2
10:21 83.8 °F /  28.8 °C 42.1 °F /  5.6 °C 29.68in /  1005hPa SW 2.0mph /  3.2km/h 5.0mph /  8km/h 23% 0.00in /  0mm 805.0 W/m2
10:27 84.0 °F /  28.9 °C 42.3 °F /  5.7 °C 29.68in /  1005hPa Calm   3.0mph /  4.8km/h 23% 0.00in /  0mm 475.0 W/m2
10:32 84.4 °F /  29.1 °C 42.6 °F /  5.9 °C 29.68in /  1005hPa NNW 9.0mph /  14.5km/h 9.0mph /  14.5km/h 23% 0.00in /  0mm 329.0 W/m2
10:37 84.9 °F /  29.4 °C 43.0 °F /  6.1 °C 29.68in /  1005hPa North 2.9mph /  4.7km/h 7.0mph /  11.3km/h 23% 0.00in /  0mm 396.0 W/m2
10:42 85.1 °F /  29.5 °C 43.2 °F /  6.2 °C 29.68in /  1005hPa North 2.0mph /  3.2km/h 6.0mph /  9.7km/h 23% 0.00in /  0mm 309.0 W/m2
10:47 84.6 °F /  29.2 °C 42.6 °F /  5.9 °C 29.68in /  1005hPa NNE 6.9mph /  11.1km/h 7.0mph /  11.3km/h 23% 0.00in /  0mm 311.0 W/m2
10:52 83.8 °F /  28.8 °C 43.2 °F /  6.2 °C 29.68in /  1005hPa NE 4.0mph /  6.4km/h 5.0mph /  8km/h 24% 0.00in /  0mm 353.0 W/m2
10:57 83.7 °F /  28.7 °C 43.0 °F /  6.1 °C 29.68in /  1005hPa Calm   2.0mph /  3.2km/h 24% 0.00in /  0mm 396.0 W/m2
11:02 83.8 °F /  28.8 °C 43.2 °F /  6.2 °C 29.68in /  1005hPa NE 2.9mph /  4.7km/h 6.0mph /  9.7km/h 24% 0.00in /  0mm 345.0 W/m2
11:07 84.0 °F /  28.9 °C 43.3 °F /  6.3 °C 29.67in /  1004.6hPa NE 2.0mph /  3.2km/h 5.0mph /  8km/h 24% 0.00in /  0mm 348.0 W/m2
11:13 84.2 °F /  29 °C 43.5 °F /  6.4 °C 29.68in /  1005hPa Calm   2.0mph /  3.2km/h 24% 0.00in /  0mm 327.0 W/m2
11:18 84.4 °F /  29.1 °C 43.7 °F /  6.5 °C 29.67in /  1004.6hPa NE 2.9mph /  4.7km/h 5.0mph /  8km/h 24% 0.00in /  0mm 323.0 W/m2
11:23 84.4 °F /  29.1 °C 42.6 °F /  5.9 °C 29.67in /  1004.6hPa Calm   5.0mph /  8km/h 23% 0.00in /  0mm 309.0 W/m2
11:28 84.4 °F /  29.1 °C 42.6 °F /  5.9 °C 29.67in /  1004.6hPa Calm   5.0mph /  8km/h 23% 0.00in /  0mm 334.0 W/m2
11:33 84.4 °F /  29.1 °C 42.6 °F /  5.9 °C 29.67in /  1004.6hPa NNW 6.9mph /  11.1km/h 10.0mph /  16.1km/h 23% 0.00in /  0mm 325.0 W/m2
11:38 84.4 °F /  29.1 °C 42.6 °F /  5.9 °C 29.67in /  1004.6hPa North 2.9mph /  4.7km/h 10.0mph /  16.1km/h 23% 0.00in /  0mm 455.0 W/m2
11:43 84.6 °F /  29.2 °C 42.6 °F /  5.9 °C 29.67in /  1004.6hPa East 2.0mph /  3.2km/h 6.0mph /  9.7km/h 23% 0.00in /  0mm 476.0 W/m2
11:48 85.3 °F /  29.6 °C 44.4 °F /  6.9 °C 29.67in /  1004.6hPa Calm   4.0mph /  6.4km/h 24% 0.00in /  0mm 1429.0 W/m2
11:53 86.4 °F /  30.2 °C 43.0 °F /  6.1 °C 29.67in /  1004.6hPa East 0.9mph /  1.4km/h 9.0mph /  14.5km/h 22% 0.00in /  0mm 700.0 W/m2
11:59 86.7 °F /  30.4 °C 42.1 °F /  5.6 °C 29.67in /  1004.6hPa NE 2.9mph /  4.7km/h 11.0mph /  17.7km/h 21% 0.00in /  0mm 536.0 W/m2
12:04 86.9 °F /  30.5 °C 43.5 °F /  6.4 °C 29.67in /  1004.6hPa NNE 6.0mph /  9.7km/h 6.0mph /  9.7km/h 22% 0.00in /  0mm 432.0 W/m2
12:09 86.9 °F /  30.5 °C 43.5 °F /  6.4 °C 29.67in /  1004.6hPa Calm   7.0mph /  11.3km/h 22% 0.00in /  0mm 476.0 W/m2
12:14 86.9 °F /  30.5 °C 42.3 °F /  5.7 °C 29.67in /  1004.6hPa North 0.9mph /  1.4km/h 12.0mph /  19.3km/h 21% 0.00in /  0mm 520.0 W/m2
12:19 87.1 °F /  30.6 °C 43.7 °F /  6.5 °C 29.67in /  1004.6hPa North 4.9mph /  7.9km/h 10.0mph /  16.1km/h 22% 0.00in /  0mm 1348.0 W/m2
12:24 87.6 °F /  30.9 °C 42.8 °F /  6 °C 29.66in /  1004.3hPa East 2.9mph /  4.7km/h 8.0mph /  12.9km/h 21% 0.00in /  0mm 519.0 W/m2
12:29 87.4 °F /  30.8 °C 42.8 °F /  6 °C 29.66in /  1004.3hPa South 2.0mph /  3.2km/h 8.0mph /  12.9km/h 21% 0.00in /  0mm 397.0 W/m2
12:34 87.3 °F /  30.7 °C 42.6 °F /  5.9 °C 29.66in /  1004.3hPa Calm   3.0mph /  4.8km/h 21% 0.00in /  0mm 390.0 W/m2
12:39 87.3 °F /  30.7 °C 43.7 °F /  6.5 °C 29.66in /  1004.3hPa North 4.0mph /  6.4km/h 6.0mph /  9.7km/h 22% 0.00in /  0mm 401.0 W/m2
12:45 87.3 °F /  30.7 °C 43.7 °F /  6.5 °C 29.66in /  1004.3hPa North 2.9mph /  4.7km/h 6.0mph /  9.7km/h 22% 0.00in /  0mm 401.0 W/m2
12:51 87.3 °F /  30.7 °C 43.7 °F /  6.5 °C 29.65in /  1003.9hPa NW 2.9mph /  4.7km/h 3.0mph /  4.8km/h 22% 0.00in /  0mm 429.0 W/m2
12:56 87.3 °F /  30.7 °C 43.7 °F /  6.5 °C 29.65in /  1003.9hPa Calm   10.0mph /  16.1km/h 22% 0.00in /  0mm 429.0 W/m2
13:01 87.3 °F /  30.7 °C 43.7 °F /  6.5 °C 29.65in /  1003.9hPa NNW 2.0mph /  3.2km/h 7.0mph /  11.3km/h 22% 0.00in /  0mm 403.0 W/m2
13:06 87.3 °F /  30.7 °C 43.7 °F /  6.5 °C 29.65in /  1003.9hPa WNW 0.9mph /  1.4km/h 5.0mph /  8km/h 22% 0.00in /  0mm 383.0 W/m2
13:11 87.1 °F /  30.6 °C 43.7 °F /  6.5 °C 29.65in /  1003.9hPa Calm   7.0mph /  11.3km/h 22% 0.00in /  0mm 378.0 W/m2
13:17 86.7 °F /  30.4 °C 44.4 °F /  6.9 °C 29.65in /  1003.9hPa Calm   4.0mph /  6.4km/h 23% 0.00in /  0mm 439.0 W/m2
13:22 87.1 °F /  30.6 °C 43.7 °F /  6.5 °C 29.64in /  1003.6hPa Calm   6.0mph /  9.7km/h 22% 0.00in /  0mm 561.0 W/m2
13:27 87.4 °F /  30.8 °C 43.9 °F /  6.6 °C 29.64in /  1003.6hPa Calm   1.0mph /  1.6km/h 22% 0.00in /  0mm 596.0 W/m2
13:32 87.6 °F /  30.9 °C 44.1 °F /  6.7 °C 29.64in /  1003.6hPa SE 0.9mph /  1.4km/h 2.0mph /  3.2km/h 22% 0.00in /  0mm 492.0 W/m2
13:38 88.3 °F /  31.3 °C 44.6 °F /  7 °C 29.63in /  1003.3hPa NW 0.9mph /  1.4km/h 6.0mph /  9.7km/h 22% 0.00in /  0mm 517.0 W/m2
13:43 89.1 °F /  31.7 °C 44.1 °F /  6.7 °C 29.63in /  1003.3hPa Calm   4.0mph /  6.4km/h 21% 0.00in /  0mm 452.0 W/m2
13:48 88.7 °F /  31.5 °C 43.7 °F /  6.5 °C 29.63in /  1003.3hPa SW 4.0mph /  6.4km/h 8.0mph /  12.9km/h 21% 0.00in /  0mm 432.0 W/m2
13:53 87.8 °F /  31 °C 43.0 °F /  6.1 °C 29.63in /  1003.3hPa Calm   2.0mph /  3.2km/h 21% 0.00in /  0mm 348.0 W/m2
13:58 87.4 °F /  30.8 °C 45.1 °F /  7.3 °C 29.63in /  1003.3hPa Calm   1.0mph /  1.6km/h 23% 0.00in /  0mm 353.0 W/m2
14:03 87.4 °F /  30.8 °C 43.9 °F /  6.6 °C 29.62in /  1002.9hPa Calm   6.0mph /  9.7km/h 22% 0.00in /  0mm 362.0 W/m2
14:08 87.4 °F /  30.8 °C 43.9 °F /  6.6 °C 29.62in /  1002.9hPa North 4.9mph /  7.9km/h 6.0mph /  9.7km/h 22% 0.00in /  0mm 309.0 W/m2
14:13 87.4 °F /  30.8 °C 42.8 °F /  6 °C 29.62in /  1002.9hPa NNE 2.9mph /  4.7km/h 10.0mph /  16.1km/h 21% 0.00in /  0mm 406.0 W/m2
14:18 87.6 °F /  30.9 °C 44.1 °F /  6.7 °C 29.62in /  1002.9hPa North 2.9mph /  4.7km/h 3.0mph /  4.8km/h 22% 0.00in /  0mm 1329.0 W/m2
14:23 88.3 °F /  31.3 °C 43.5 °F /  6.4 °C 29.62in /  1002.9hPa WSW 2.0mph /  3.2km/h 3.0mph /  4.8km/h 21% 0.00in /  0mm 1215.0 W/m2
14:29 87.8 °F /  31 °C 43.0 °F /  6.1 °C 29.62in /  1002.9hPa Calm   4.0mph /  6.4km/h 21% 0.00in /  0mm 526.0 W/m2
14:34 87.4 °F /  30.8 °C 43.9 °F /  6.6 °C 29.62in /  1002.9hPa South 4.0mph /  6.4km/h 6.0mph /  9.7km/h 22% 0.00in /  0mm 543.0 W/m2
14:39 87.6 °F /  30.9 °C 44.1 °F /  6.7 °C 29.61in /  1002.6hPa West 0.9mph /  1.4km/h 3.0mph /  4.8km/h 22% 0.00in /  0mm 513.0 W/m2
14:44 88.0 °F /  31.1 °C 44.4 °F /  6.9 °C 29.62in /  1002.9hPa NW 2.0mph /  3.2km/h 3.0mph /  4.8km/h 22% 0.00in /  0mm 322.0 W/m2
14:49 88.2 °F /  31.2 °C 44.6 °F /  7 °C 29.61in /  1002.6hPa ENE 2.0mph /  3.2km/h 7.0mph /  11.3km/h 22% 0.00in /  0mm 318.0 W/m2
14:54 88.2 °F /  31.2 °C 43.3 °F /  6.3 °C 29.61in /  1002.6hPa Calm   7.0mph /  11.3km/h 21% 0.00in /  0mm 434.0 W/m2
14:59 88.3 °F /  31.3 °C 43.5 °F /  6.4 °C 29.61in /  1002.6hPa NNE 0.9mph /  1.4km/h 5.0mph /  8km/h 21% 0.00in /  0mm 497.0 W/m2
15:04 89.2 °F /  31.8 °C 44.2 °F /  6.8 °C 29.60in /  1002.3hPa NE 4.9mph /  7.9km/h 5.0mph /  8km/h 21% 0.00in /  0mm 1267.0 W/m2
15:09 90.3 °F /  32.4 °C 43.9 °F /  6.6 °C 29.60in /  1002.3hPa North 0.9mph /  1.4km/h 3.0mph /  4.8km/h 20% 0.00in /  0mm 1125.0 W/m2
15:15 91.0 °F /  32.8 °C 44.4 °F /  6.9 °C 29.60in /  1002.3hPa WNW 0.9mph /  1.4km/h 5.0mph /  8km/h 20% 0.00in /  0mm 406.0 W/m2
15:20 91.2 °F /  32.9 °C 44.6 °F /  7 °C 29.60in /  1002.3hPa Calm   3.0mph /  4.8km/h 20% 0.00in /  0mm 418.0 W/m2
15:25 91.0 °F /  32.8 °C 44.4 °F /  6.9 °C 29.59in /  1001.9hPa Calm   3.0mph /  4.8km/h 20% 0.00in /  0mm 568.0 W/m2
15:30 91.0 °F /  32.8 °C 44.4 °F /  6.9 °C 29.59in /  1001.9hPa West 4.9mph /  7.9km/h 5.0mph /  8km/h 20% 0.00in /  0mm 380.0 W/m2
15:35 90.9 °F /  32.7 °C 44.2 °F /  6.8 °C 29.59in /  1001.9hPa Calm   2.0mph /  3.2km/h 20% 0.00in /  0mm 441.0 W/m2
15:40 90.9 °F /  32.7 °C 44.2 °F /  6.8 °C 29.59in /  1001.9hPa Calm   2.0mph /  3.2km/h 20% 0.00in /  0mm 476.0 W/m2
15:45 90.9 °F /  32.7 °C 44.2 °F /  6.8 °C 29.59in /  1001.9hPa Calm   1.0mph /  1.6km/h 20% 0.00in /  0mm 415.0 W/m2
15:50 90.7 °F /  32.6 °C 44.1 °F /  6.7 °C 29.59in /  1001.9hPa WSW 2.0mph /  3.2km/h 8.0mph /  12.9km/h 20% 0.00in /  0mm 566.0 W/m2
15:56 90.3 °F /  32.4 °C 43.9 °F /  6.6 °C 29.58in /  1001.6hPa SW 2.0mph /  3.2km/h 5.0mph /  8km/h 20% 0.00in /  0mm 420.0 W/m2
16:01 90.3 °F /  32.4 °C 45.1 °F /  7.3 °C 29.58in /  1001.6hPa WNW 2.0mph /  3.2km/h 3.0mph /  4.8km/h 21% 0.00in /  0mm 417.0 W/m2
16:06 90.1 °F /  32.3 °C 43.7 °F /  6.5 °C 29.58in /  1001.6hPa WSW 2.9mph /  4.7km/h 4.0mph /  6.4km/h 20% 0.00in /  0mm 329.0 W/m2
16:11 89.2 °F /  31.8 °C 44.2 °F /  6.8 °C 29.58in /  1001.6hPa WSW 0.9mph /  1.4km/h 4.0mph /  6.4km/h 21% 0.00in /  0mm 320.0 W/m2
16:16 88.9 °F /  31.6 °C 43.9 °F /  6.6 °C 29.58in /  1001.6hPa WSW 4.0mph /  6.4km/h 6.0mph /  9.7km/h 21% 0.00in /  0mm 976.0 W/m2
16:21 89.4 °F /  31.9 °C 44.4 °F /  6.9 °C 29.58in /  1001.6hPa West 2.9mph /  4.7km/h 6.0mph /  9.7km/h 21% 0.00in /  0mm 640.0 W/m2
16:26 89.8 °F /  32.1 °C 44.6 °F /  7 °C 29.57in /  1001.2hPa SSW 2.9mph /  4.7km/h 3.0mph /  4.8km/h 21% 0.00in /  0mm 617.0 W/m2
16:31 90.0 °F /  32.2 °C 43.5 °F /  6.4 °C 29.57in /  1001.2hPa NW 2.9mph /  4.7km/h 4.0mph /  6.4km/h 20% 0.00in /  0mm 288.0 W/m2
16:37 90.1 °F /  32.3 °C 43.7 °F /  6.5 °C 29.57in /  1001.2hPa North 4.0mph /  6.4km/h 9.0mph /  14.5km/h 20% 0.00in /  0mm 246.0 W/m2
16:42 89.8 °F /  32.1 °C 43.3 °F /  6.3 °C 29.57in /  1001.2hPa NNW 0.9mph /  1.4km/h 4.0mph /  6.4km/h 20% 0.00in /  0mm 234.0 W/m2
16:47 89.6 °F /  32 °C 44.4 °F /  6.9 °C 29.57in /  1001.2hPa Calm   6.0mph /  9.7km/h 21% 0.00in /  0mm 250.0 W/m2
16:52 89.4 °F /  31.9 °C 44.4 °F /  6.9 °C 29.57in /  1001.2hPa WSW 2.0mph /  3.2km/h 6.0mph /  9.7km/h 21% 0.00in /  0mm 487.0 W/m2
16:57 89.2 °F /  31.8 °C 44.2 °F /  6.8 °C 29.56in /  1000.9hPa Calm   2.0mph /  3.2km/h 21% 0.00in /  0mm 278.0 W/m2
17:02 89.8 °F /  32.1 °C 43.3 °F /  6.3 °C 29.56in /  1000.9hPa NW 0.9mph /  1.4km/h 7.0mph /  11.3km/h 20% 0.00in /  0mm 686.0 W/m2
17:07 90.7 °F /  32.6 °C 44.1 °F /  6.7 °C 29.56in /  1000.9hPa Calm   7.0mph /  11.3km/h 20% 0.00in /  0mm 642.0 W/m2
17:12 90.9 °F /  32.7 °C 44.2 °F /  6.8 °C 29.56in /  1000.9hPa Calm   9.0mph /  14.5km/h 20% 0.00in /  0mm 606.0 W/m2
17:17 91.6 °F /  33.1 °C 44.8 °F /  7.1 °C 29.56in /  1000.9hPa WSW 0.9mph /  1.4km/h 5.0mph /  8km/h 20% 0.00in /  0mm 591.0 W/m2
17:22 92.3 °F /  33.5 °C 44.1 °F /  6.7 °C 29.56in /  1000.9hPa WNW 0.9mph /  1.4km/h 4.0mph /  6.4km/h 19% 0.00in /  0mm 589.0 W/m2
17:28 92.8 °F /  33.8 °C 44.6 °F /  7 °C 29.56in /  1000.9hPa NNW 2.0mph /  3.2km/h 4.0mph /  6.4km/h 19% 0.00in /  0mm 545.0 W/m2
17:33 93.0 °F /  33.9 °C 43.3 °F /  6.3 °C 29.56in /  1000.9hPa NW 0.9mph /  1.4km/h 7.0mph /  11.3km/h 18% 0.00in /  0mm 512.0 W/m2
17:38 92.8 °F /  33.8 °C 44.6 °F /  7 °C 29.56in /  1000.9hPa WNW 2.0mph /  3.2km/h 5.0mph /  8km/h 19% 0.00in /  0mm 476.0 W/m2
17:43 92.3 °F /  33.5 °C 44.1 °F /  6.7 °C 29.56in /  1000.9hPa SW 0.9mph /  1.4km/h 7.0mph /  11.3km/h 19% 0.00in /  0mm 137.0 W/m2
17:48 91.0 °F /  32.8 °C 43.0 °F /  6.1 °C 29.56in /  1000.9hPa WSW 4.0mph /  6.4km/h 9.0mph /  14.5km/h 19% 0.00in /  0mm 445.0 W/m2
17:53 90.3 °F /  32.4 °C 43.9 °F /  6.6 °C 29.56in /  1000.9hPa Calm   3.0mph /  4.8km/h 20% 0.00in /  0mm 93.0 W/m2
17:58 89.8 °F /  32.1 °C 43.3 °F /  6.3 °C 29.56in /  1000.9hPa Calm   5.0mph /  8km/h 20% 0.00in /  0mm 84.0 W/m2
18:03 89.1 °F /  31.7 °C 42.8 °F /  6 °C 29.56in /  1000.9hPa North 2.0mph /  3.2km/h 2.0mph /  3.2km/h 20% 0.00in /  0mm 98.0 W/m2
18:08 88.7 °F /  31.5 °C 43.7 °F /  6.5 °C 29.56in /  1000.9hPa West 0.9mph /  1.4km/h 3.0mph /  4.8km/h 21% 0.00in /  0mm 211.0 W/m2
18:13 88.9 °F /  31.6 °C 42.6 °F /  5.9 °C 29.56in /  1000.9hPa Calm   7.0mph /  11.3km/h 20% 0.00in /  0mm 169.0 W/m2
18:18 88.9 °F /  31.6 °C 42.6 °F /  5.9 °C 29.57in /  1001.2hPa West 2.9mph /  4.7km/h 7.0mph /  11.3km/h 20% 0.00in /  0mm 141.0 W/m2
18:24 88.7 °F /  31.5 °C 42.4 °F /  5.8 °C 29.57in /  1001.2hPa NNW 2.0mph /  3.2km/h 3.0mph /  4.8km/h 20% 0.00in /  0mm 251.0 W/m2
18:29 89.1 °F /  31.7 °C 42.8 °F /  6 °C 29.57in /  1001.2hPa WNW 2.9mph /  4.7km/h 4.0mph /  6.4km/h 20% 0.00in /  0mm 102.0 W/m2
18:34 89.1 °F /  31.7 °C 42.8 °F /  6 °C 29.57in /  1001.2hPa West 2.0mph /  3.2km/h 3.0mph /  4.8km/h 20% 0.00in /  0mm 225.0 W/m2
18:39 89.2 °F /  31.8 °C 43.0 °F /  6.1 °C 29.57in /  1001.2hPa Calm   1.0mph /  1.6km/h 20% 0.00in /  0mm 199.0 W/m2
18:45 89.4 °F /  31.9 °C 43.0 °F /  6.1 °C 29.57in /  1001.2hPa WSW 0.9mph /  1.4km/h 5.0mph /  8km/h 20% 0.00in /  0mm 163.0 W/m2
18:50 89.2 °F /  31.8 °C 43.0 °F /  6.1 °C 29.57in /  1001.2hPa Calm   1.0mph /  1.6km/h 20% 0.00in /  0mm 132.0 W/m2
18:55 88.9 °F /  31.6 °C 41.4 °F /  5.2 °C 29.57in /  1001.2hPa WSW 2.0mph /  3.2km/h 8.0mph /  12.9km/h 19% 0.00in /  0mm 63.0 W/m2
19:00 88.3 °F /  31.3 °C 40.8 °F /  4.9 °C 29.58in /  1001.6hPa WSW 2.9mph /  4.7km/h 4.0mph /  6.4km/h 19% 0.00in /  0mm 53.0 W/m2
19:05 87.4 °F /  30.8 °C 37.2 °F /  2.9 °C 29.58in /  1001.6hPa West 2.9mph /  4.7km/h 10.0mph /  16.1km/h 17% 0.00in /  0mm 39.0 W/m2
19:10 86.7 °F /  30.4 °C 36.7 °F /  2.6 °C 29.58in /  1001.6hPa WSW 2.0mph /  3.2km/h 9.0mph /  14.5km/h 17% 0.00in /  0mm 32.0 W/m2
19:16 86.2 °F /  30.1 °C 37.8 °F /  3.2 °C 29.58in /  1001.6hPa WSW 8.1mph /  13km/h 9.0mph /  14.5km/h 18% 0.00in /  0mm 30.0 W/m2
19:21 85.6 °F /  29.8 °C 37.2 °F /  2.9 °C 29.58in /  1001.6hPa West 2.0mph /  3.2km/h 9.0mph /  14.5km/h 18% 0.00in /  0mm 28.0 W/m2
19:26 85.5 °F /  29.7 °C 37.0 °F /  2.8 °C 29.58in /  1001.6hPa Calm   6.0mph /  9.7km/h 18% 0.00in /  0mm 23.0 W/m2
19:31 85.1 °F /  29.5 °C 36.9 °F /  2.7 °C 29.59in /  1001.9hPa SSW 6.0mph /  9.7km/h 12.0mph /  19.3km/h 18% 0.00in /  0mm 19.0 W/m2
19:36 84.6 °F /  29.2 °C 36.3 °F /  2.4 °C 29.59in /  1001.9hPa SW 6.9mph /  11.1km/h 11.0mph /  17.7km/h 18% 0.00in /  0mm 16.0 W/m2
19:41 83.8 °F /  28.8 °C 37.2 °F /  2.9 °C 29.60in /  1002.3hPa West 8.1mph /  13km/h 14.0mph /  22.5km/h 19% 0.00in /  0mm 9.0 W/m2
19:46 82.8 °F /  28.2 °C 37.6 °F /  3.1 °C 29.60in /  1002.3hPa WSW 11.0mph /  17.7km/h 11.0mph /  17.7km/h 20% 0.00in /  0mm 0.0 W/m2
19:51 81.9 °F /  27.7 °C 39.2 °F /  4 °C 29.60in /  1002.3hPa WSW 2.0mph /  3.2km/h 8.0mph /  12.9km/h 22% 0.00in /  0mm 0.0 W/m2
19:56 81.3 °F /  27.4 °C 38.8 °F /  3.8 °C 29.61in /  1002.6hPa South 4.0mph /  6.4km/h 7.0mph /  11.3km/h 22% 0.00in /  0mm 0.0 W/m2
20:01 81.0 °F /  27.2 °C 38.5 °F /  3.6 °C 29.61in /  1002.6hPa SW 6.9mph /  11.1km/h 10.0mph /  16.1km/h 22% 0.00in /  0mm 0.0 W/m2
20:07 80.4 °F /  26.9 °C 39.2 °F /  4 °C 29.61in /  1002.6hPa SSW 6.9mph /  11.1km/h 8.0mph /  12.9km/h 23% 0.00in /  0mm 0.0 W/m2
20:12 80.1 °F /  26.7 °C 38.8 °F /  3.8 °C 29.61in /  1002.6hPa SSW 4.0mph /  6.4km/h 8.0mph /  12.9km/h 23% 0.00in /  0mm 0.0 W/m2
20:17 79.5 °F /  26.4 °C 38.5 °F /  3.6 °C 29.62in /  1002.9hPa SSE 2.9mph /  4.7km/h 10.0mph /  16.1km/h 23% 0.00in /  0mm 0.0 W/m2
20:22 79.3 °F /  26.3 °C 39.4 °F /  4.1 °C 29.63in /  1003.3hPa SSW 2.0mph /  3.2km/h 9.0mph /  14.5km/h 24% 0.00in /  0mm 0.0 W/m2
20:27 79.0 °F /  26.1 °C 39.2 °F /  4 °C 29.63in /  1003.3hPa SW 2.9mph /  4.7km/h 9.0mph /  14.5km/h 24% 0.00in /  0mm 0.0 W/m2
20:32 78.6 °F /  25.9 °C 38.8 °F /  3.8 °C 29.63in /  1003.3hPa SW 4.0mph /  6.4km/h 6.0mph /  9.7km/h 24% 0.00in /  0mm 0.0 W/m2
20:37 78.4 °F /  25.8 °C 38.7 °F /  3.7 °C 29.64in /  1003.6hPa South 2.0mph /  3.2km/h 6.0mph /  9.7km/h 24% 0.00in /  0mm 0.0 W/m2
20:42 78.1 °F /  25.6 °C 38.3 °F /  3.5 °C 29.64in /  1003.6hPa SSW 0.9mph /  1.4km/h 8.0mph /  12.9km/h 24% 0.00in /  0mm 0.0 W/m2
20:47 77.7 °F /  25.4 °C 38.1 °F /  3.4 °C 29.64in /  1003.6hPa SSW 4.0mph /  6.4km/h 9.0mph /  14.5km/h 24% 0.00in /  0mm 0.0 W/m2
20:52 77.5 °F /  25.3 °C 37.9 °F /  3.3 °C 29.64in /  1003.6hPa SSE 8.1mph /  13km/h 11.0mph /  17.7km/h 24% 0.00in /  0mm 0.0 W/m2
20:58 77.4 °F /  25.2 °C 37.8 °F /  3.2 °C 29.64in /  1003.6hPa Calm   3.0mph /  4.8km/h 24% 0.00in /  0mm 0.0 W/m2
21:03 77.2 °F /  25.1 °C 37.6 °F /  3.1 °C 29.64in /  1003.6hPa WSW 2.0mph /  3.2km/h 7.0mph /  11.3km/h 24% 0.00in /  0mm 0.0 W/m2
21:08 77.0 °F /  25 °C 37.4 °F /  3 °C 29.65in /  1003.9hPa SW 2.0mph /  3.2km/h 7.0mph /  11.3km/h 24% 0.00in /  0mm 0.0 W/m2
21:13 76.6 °F /  24.8 °C 37.2 °F /  2.9 °C 29.65in /  1003.9hPa Calm   1.0mph /  1.6km/h 24% 0.00in /  0mm 0.0 W/m2
21:19 76.5 °F /  24.7 °C 37.9 °F /  3.3 °C 29.65in /  1003.9hPa West 0.9mph /  1.4km/h 3.0mph /  4.8km/h 25% 0.00in /  0mm 0.0 W/m2
21:24 76.1 °F /  24.5 °C 37.8 °F /  3.2 °C 29.65in /  1003.9hPa WSW 0.9mph /  1.4km/h 1.0mph /  1.6km/h 25% 0.00in /  0mm 0.0 W/m2
21:29 75.9 °F /  24.4 °C 37.6 °F /  3.1 °C 29.65in /  1003.9hPa West 2.9mph /  4.7km/h 3.0mph /  4.8km/h 25% 0.00in /  0mm 0.0 W/m2
21:34 75.6 °F /  24.2 °C 37.2 °F /  2.9 °C 29.65in /  1003.9hPa Calm   6.0mph /  9.7km/h 25% 0.00in /  0mm 0.0 W/m2
21:39 75.6 °F /  24.2 °C 37.2 °F /  2.9 °C 29.65in /  1003.9hPa Calm   7.0mph /  11.3km/h 25% 0.00in /  0mm 0.0 W/m2
21:44 75.6 °F /  24.2 °C 38.3 °F /  3.5 °C 29.66in /  1004.3hPa Calm   1.0mph /  1.6km/h 26% 0.00in /  0mm 0.0 W/m2
21:50 75.4 °F /  24.1 °C 38.1 °F /  3.4 °C 29.66in /  1004.3hPa Calm     26% 0.00in /  0mm 0.0 W/m2
21:55 75.4 °F /  24.1 °C 38.1 °F /  3.4 °C 29.66in /  1004.3hPa Calm   1.0mph /  1.6km/h 26% 0.00in /  0mm 0.0 W/m2
22:00 75.0 °F /  23.9 °C 37.8 °F /  3.2 °C 29.66in /  1004.3hPa Calm     26% 0.00in /  0mm 0.0 W/m2
22:05 74.8 °F /  23.8 °C 38.7 °F /  3.7 °C 29.66in /  1004.3hPa Calm     27% 0.00in /  0mm 0.0 W/m2
22:10 74.7 °F /  23.7 °C 38.5 °F /  3.6 °C 29.66in /  1004.3hPa Calm   1.0mph /  1.6km/h 27% 0.00in /  0mm 0.0 W/m2
22:15 74.5 °F /  23.6 °C 38.3 °F /  3.5 °C 29.66in /  1004.3hPa Calm   2.0mph /  3.2km/h 27% 0.00in /  0mm 0.0 W/m2
22:20 74.1 °F /  23.4 °C 37.9 °F /  3.3 °C 29.66in /  1004.3hPa SW 2.0mph /  3.2km/h 3.0mph /  4.8km/h 27% 0.00in /  0mm 0.0 W/m2
22:25 74.1 °F /  23.4 °C 37.9 °F /  3.3 °C 29.66in /  1004.3hPa Calm     27% 0.00in /  0mm 0.0 W/m2
22:31 73.9 °F /  23.3 °C 38.8 °F /  3.8 °C 29.66in /  1004.3hPa Calm     28% 0.00in /  0mm 0.0 W/m2
22:37 73.8 °F /  23.2 °C 38.7 °F /  3.7 °C 29.66in /  1004.3hPa Calm   1.0mph /  1.6km/h 28% 0.00in /  0mm 0.0 W/m2
22:42 73.6 °F /  23.1 °C 38.5 °F /  3.6 °C 29.66in /  1004.3hPa Calm     28% 0.00in /  0mm 0.0 W/m2
22:47 73.2 °F /  22.9 °C 38.1 °F /  3.4 °C 29.67in /  1004.6hPa Calm     28% 0.00in /  0mm 0.0 W/m2
22:52 73.0 °F /  22.8 °C 38.8 °F /  3.8 °C 29.67in /  1004.6hPa Calm     29% 0.00in /  0mm 0.0 W/m2
22:59 72.5 °F /  22.5 °C 39.4 °F /  4.1 °C 29.67in /  1004.6hPa Calm     30% 0.00in /  0mm 0.0 W/m2
23:05 72.1 °F /  22.3 °C 39.0 °F /  3.9 °C 29.67in /  1004.6hPa Calm     30% 0.00in /  0mm 0.0 W/m2
23:10 72.0 °F /  22.2 °C 38.8 °F /  3.8 °C 29.67in /  1004.6hPa Calm     30% 0.00in /  0mm 0.0 W/m2
23:16 71.6 °F /  22 °C 38.5 °F /  3.6 °C 29.67in /  1004.6hPa Calm     30% 0.00in /  0mm 0.0 W/m2
23:21 71.2 °F /  21.8 °C 38.3 °F /  3.5 °C 29.67in /  1004.6hPa Calm   2.0mph /  3.2km/h 30% 0.00in /  0mm 0.0 W/m2
23:26 71.2 °F /  21.8 °C 38.3 °F /  3.5 °C 29.68in /  1005hPa SE 0.9mph /  1.4km/h 3.0mph /  4.8km/h 30% 0.00in /  0mm 0.0 W/m2
23:31 71.2 °F /  21.8 °C 38.3 °F /  3.5 °C 29.68in /  1005hPa SE 0.9mph /  1.4km/h 3.0mph /  4.8km/h 30% 0.00in /  0mm 0.0 W/m2
23:36 71.2 °F /  21.8 °C 38.3 °F /  3.5 °C 29.68in /  1005hPa SSE 2.0mph /  3.2km/h 3.0mph /  4.8km/h 30% 0.00in /  0mm 0.0 W/m2
23:41 71.2 °F /  21.8 °C 38.3 °F /  3.5 °C 29.68in /  1005hPa SE 0.9mph /  1.4km/h 3.0mph /  4.8km/h 30% 0.00in /  0mm 0.0 W/m2
23:46 71.2 °F /  21.8 °C 38.3 °F /  3.5 °C 29.68in /  1005hPa Calm   3.0mph /  4.8km/h 30% 0.00in /  0mm 0.0 W/m2
23:51 71.1 °F /  21.7 °C 38.1 °F /  3.4 °C 29.68in /  1005hPa Calm   1.0mph /  1.6km/h 30% 0.00in /  0mm 0.0 W/m2
23:57 71.1 °F /  21.7 °C 38.1 °F /  3.4 °C 29.67in /  1004.6hPa Calm   1.0mph /  1.6km/h 30% 0.00in /  0mm 0.0 W/m2
Olympia, Windhoek, Namibia
Compliments of Weather Underground - 3.25 mb